createdAt,value
2022-12-12T00:00:31.308Z,-1.20
2022-12-12T00:02:59.640Z,-1.20
2022-12-12T00:05:28.106Z,-1.20
2022-12-12T00:07:56.299Z,-1.20
2022-12-12T00:10:25.908Z,-1.20
2022-12-12T00:12:54.077Z,-1.20
2022-12-12T00:15:22.513Z,-1.20
2022-12-12T00:17:50.675Z,-1.20
2022-12-12T00:20:18.800Z,-1.20
2022-12-12T00:22:47.127Z,-1.20
2022-12-12T00:25:24.276Z,-1.20
2022-12-12T00:27:53.796Z,-1.20
2022-12-12T00:30:25.193Z,-1.20
2022-12-12T00:32:53.272Z,-1.10
2022-12-12T00:35:21.396Z,-1.10
2022-12-12T00:37:49.717Z,-1.10
2022-12-12T00:40:17.824Z,-1.10
2022-12-12T00:42:45.955Z,-1.10
2022-12-12T00:45:15.634Z,-1.10
2022-12-12T00:47:43.750Z,-1.10
2022-12-12T00:50:11.912Z,-1.10
2022-12-12T00:52:40.327Z,-1.20
2022-12-12T00:55:08.956Z,-1.10
2022-12-12T00:57:37.147Z,-1.10
2022-12-12T01:00:06.325Z,-1.10
2022-12-12T01:02:36.102Z,-1.10
2022-12-12T01:05:04.537Z,-1.10
2022-12-12T01:07:35.936Z,-1.10
2022-12-12T01:10:04.792Z,-1.10
2022-12-12T01:12:40.529Z,-1.20
2022-12-12T01:15:09.839Z,-1.20
2022-12-12T01:17:39.803Z,-1.20
2022-12-12T01:20:09.265Z,-1.20
2022-12-12T01:22:37.690Z,-1.20
2022-12-12T01:25:06.252Z,-1.20
2022-12-12T01:27:34.330Z,-1.20
2022-12-12T01:30:02.805Z,-1.20
2022-12-12T01:32:31.113Z,-1.10
2022-12-12T01:35:00.897Z,-1.10
2022-12-12T01:37:29.417Z,-1.10
2022-12-12T01:39:57.559Z,-1.20
2022-12-12T01:42:25.760Z,-1.20
2022-12-12T01:44:54.407Z,-1.20
2022-12-12T01:47:24.385Z,-1.20
2022-12-12T01:49:55.520Z,-1.20
2022-12-12T01:52:28.149Z,-1.10
2022-12-12T01:54:57.460Z,-1.10
2022-12-12T01:57:27.663Z,-1.10
2022-12-12T01:59:55.948Z,-1.20
2022-12-12T02:02:24.297Z,-1.10
2022-12-12T02:04:52.456Z,-1.10
2022-12-12T02:07:20.652Z,-1.20
2022-12-12T02:09:51.287Z,-1.20
2022-12-12T02:12:22.740Z,-1.10
2022-12-12T02:14:52.993Z,-1.20
2022-12-12T02:17:27.756Z,-1.20
2022-12-12T02:20:05.728Z,-1.20
2022-12-12T02:22:42.094Z,-1.20
2022-12-12T02:25:23.868Z,-1.20
2022-12-12T02:28:09.433Z,-1.30
2022-12-12T02:30:41.678Z,-1.20
2022-12-12T02:33:24.853Z,-1.30
2022-12-12T02:36:02.288Z,-1.30
2022-12-12T02:38:32.365Z,-1.30
2022-12-12T02:41:07.591Z,-1.30
2022-12-12T02:43:39.045Z,-1.30
2022-12-12T02:46:13.599Z,-1.40
2022-12-12T02:48:46.843Z,-1.30
2022-12-12T02:51:15.605Z,-1.40
2022-12-12T02:53:43.905Z,-1.40
2022-12-12T02:56:26.777Z,-1.30
2022-12-12T02:58:54.980Z,-1.30
2022-12-12T03:01:28.736Z,-1.40
2022-12-12T03:04:18.229Z,-1.30
2022-12-12T03:07:09.944Z,-1.40
2022-12-12T03:09:45.729Z,-1.30
2022-12-12T03:12:16.807Z,-1.30
2022-12-12T03:14:50.744Z,-1.40
2022-12-12T03:17:23.586Z,-1.40
2022-12-12T03:19:57.237Z,-1.40
2022-12-12T03:22:27.858Z,-1.40
2022-12-12T03:24:58.852Z,-1.50
2022-12-12T03:27:30.073Z,-1.50
2022-12-12T03:30:01.909Z,-1.50
2022-12-12T03:32:31.996Z,-1.50
2022-12-12T03:35:03.804Z,-1.40
2022-12-12T03:37:34.209Z,-1.40
2022-12-12T03:40:04.953Z,-1.40
2022-12-12T03:42:36.844Z,-1.50
2022-12-12T03:45:07.383Z,-1.50
2022-12-12T03:47:38.950Z,-1.40
2022-12-12T03:50:11.583Z,-1.40
2022-12-12T03:52:41.953Z,-1.40
2022-12-12T03:55:12.810Z,-1.40
2022-12-12T03:57:43.630Z,-1.40
2022-12-12T04:00:15.007Z,-1.30
2022-12-12T04:02:46.309Z,-1.40
2022-12-12T04:05:17.967Z,-1.50
2022-12-12T04:07:49.705Z,-1.40
2022-12-12T04:10:35.151Z,-1.50
2022-12-12T04:13:11.614Z,-1.50
2022-12-12T04:15:47.768Z,-1.40
2022-12-12T04:18:21.204Z,-1.50
2022-12-12T04:21:15.030Z,-1.50
2022-12-12T04:23:47.685Z,-1.60
2022-12-12T04:26:37.140Z,-1.60
2022-12-12T04:29:09.103Z,-1.60
2022-12-12T04:31:40.063Z,-1.60
2022-12-12T04:34:11.999Z,-1.60
2022-12-12T04:36:42.482Z,-1.70
2022-12-12T04:39:11.399Z,-1.60
2022-12-12T04:41:40.924Z,-1.60
2022-12-12T04:44:11.055Z,-1.60
2022-12-12T04:46:39.748Z,-1.50
2022-12-12T04:49:09.538Z,-1.50
2022-12-12T04:51:42.615Z,-1.40
2022-12-12T04:54:15.289Z,-1.30
2022-12-12T04:56:45.268Z,-1.30
2022-12-12T04:59:13.868Z,-1.30
2022-12-12T05:01:52.586Z,-1.30
2022-12-12T05:04:24.633Z,-1.40
2022-12-12T05:06:56.494Z,-1.40
2022-12-12T05:09:26.720Z,-1.40
2022-12-12T05:11:55.388Z,-1.40
2022-12-12T05:14:23.711Z,-1.40
2022-12-12T05:16:54.654Z,-1.50
2022-12-12T05:19:22.811Z,-1.50
2022-12-12T05:21:51.009Z,-1.50
2022-12-12T05:24:19.328Z,-1.50
2022-12-12T05:26:50.773Z,-1.50
2022-12-12T05:29:19.102Z,-1.50
2022-12-12T05:31:47.244Z,-1.60
2022-12-12T05:34:15.460Z,-1.50
2022-12-12T05:36:43.826Z,-1.50
2022-12-12T05:39:11.923Z,-1.50
2022-12-12T05:41:42.882Z,-1.50
2022-12-12T05:44:12.461Z,-1.40
2022-12-12T05:46:40.584Z,-1.40
2022-12-12T05:49:10.899Z,-1.40
2022-12-12T05:51:39.002Z,-1.50
2022-12-12T05:54:07.305Z,-1.50
2022-12-12T05:56:35.425Z,-1.50
2022-12-12T05:59:03.584Z,-1.50
2022-12-12T06:01:33.269Z,-1.60
2022-12-12T06:04:01.492Z,-1.60
2022-12-12T06:06:29.608Z,-1.60
2022-12-12T06:08:57.733Z,-1.70
2022-12-12T06:11:25.896Z,-1.70
2022-12-12T06:13:54.156Z,-1.60
2022-12-12T06:16:22.381Z,-1.70
2022-12-12T06:18:55.421Z,-1.60
2022-12-12T06:21:24.035Z,-1.60
2022-12-12T06:23:52.205Z,-1.70
2022-12-12T06:26:21.560Z,-1.70
2022-12-12T06:28:50.008Z,-1.70
2022-12-12T06:31:18.543Z,-1.70
2022-12-12T06:33:46.726Z,-1.80
2022-12-12T06:36:22.692Z,-1.70
2022-12-12T06:38:53.936Z,-1.70
2022-12-12T06:41:22.052Z,-1.70
2022-12-12T06:43:50.536Z,-1.80
2022-12-12T06:46:20.433Z,-1.70
2022-12-12T06:48:48.984Z,-1.70
2022-12-12T06:51:19.287Z,-1.80
2022-12-12T06:53:47.697Z,-1.80
2022-12-12T06:56:17.532Z,-1.80
2022-12-12T06:58:45.927Z,-1.90
2022-12-12T07:01:14.700Z,-1.90
2022-12-12T07:03:43.107Z,-1.90
2022-12-12T07:06:11.287Z,-1.90
2022-12-12T07:08:44.728Z,-1.90
2022-12-12T07:11:14.049Z,-1.90
2022-12-12T07:13:42.300Z,-1.90
2022-12-12T07:16:10.686Z,-1.90
2022-12-12T07:18:39.225Z,-1.90
2022-12-12T07:21:09.507Z,-2.00
2022-12-12T07:23:37.761Z,-2.00
2022-12-12T07:26:09.236Z,-2.00
2022-12-12T07:28:40.144Z,-2.00
2022-12-12T07:31:09.017Z,-2.10
2022-12-12T07:33:43.622Z,-2.10
2022-12-12T07:36:13.183Z,-2.10
2022-12-12T07:38:41.353Z,-2.10
2022-12-12T07:41:12.641Z,-2.10
2022-12-12T07:43:44.295Z,-2.20
2022-12-12T07:46:14.729Z,-2.20
2022-12-12T07:48:43.208Z,-2.30
2022-12-12T07:51:14.458Z,-2.30
2022-12-12T07:53:42.827Z,-2.30
2022-12-12T07:56:13.547Z,-2.30
2022-12-12T07:58:41.780Z,-2.30
2022-12-12T08:01:14.426Z,-2.30
2022-12-12T08:03:43.658Z,-2.40
2022-12-12T08:06:16.497Z,-2.40
2022-12-12T08:08:44.864Z,-2.30
2022-12-12T08:11:15.988Z,-2.30
2022-12-12T08:13:45.413Z,-2.20
2022-12-12T08:16:15.071Z,-2.30
2022-12-12T08:18:43.712Z,-2.30
2022-12-12T08:21:12.487Z,-2.30
2022-12-12T08:23:42.343Z,-2.20
2022-12-12T08:26:11.062Z,-2.20
2022-12-12T08:28:41.482Z,-2.30
2022-12-12T08:31:09.880Z,-2.30
2022-12-12T08:33:38.161Z,-2.30
2022-12-12T08:36:12.326Z,-2.30
2022-12-12T08:38:40.484Z,-2.30
2022-12-12T08:41:09.916Z,-2.40
2022-12-12T08:43:38.115Z,-2.40
2022-12-12T08:46:13.726Z,-2.30
2022-12-12T08:48:45.148Z,-2.30
2022-12-12T08:51:13.391Z,-2.30
2022-12-12T08:53:43.688Z,-2.30
2022-12-12T08:56:11.820Z,-2.30
2022-12-12T08:58:40.008Z,-2.30
2022-12-12T09:01:12.580Z,-2.40
2022-12-12T09:03:41.108Z,-2.30
2022-12-12T09:06:09.320Z,-2.30
2022-12-12T09:08:37.679Z,-2.30
2022-12-12T09:11:05.912Z,-2.30
2022-12-12T09:13:36.352Z,-2.30
2022-12-12T09:16:04.760Z,-2.40
2022-12-12T09:18:34.538Z,-2.40
2022-12-12T09:21:02.808Z,-2.50
2022-12-12T09:23:31.209Z,-2.60
2022-12-12T09:25:59.643Z,-2.50
2022-12-12T09:28:27.943Z,-2.50
2022-12-12T09:30:56.408Z,-2.50
2022-12-12T09:33:24.768Z,-2.50
2022-12-12T09:36:00.148Z,-2.40
2022-12-12T09:38:28.914Z,-2.30
2022-12-12T09:40:58.385Z,-2.40
2022-12-12T09:43:29.692Z,-2.40
2022-12-12T09:45:58.482Z,-2.30
2022-12-12T09:48:29.849Z,-2.30
2022-12-12T09:50:59.599Z,-2.20
2022-12-12T09:53:28.600Z,-2.30
2022-12-12T09:55:59.751Z,-2.20
2022-12-12T09:58:30.094Z,-2.10
2022-12-12T10:01:02.003Z,-2.10
2022-12-12T10:03:39.300Z,-2.10
2022-12-12T10:09:05.744Z,-2.10
2022-12-12T10:11:54.936Z,-2.10
2022-12-12T10:14:27.897Z,-2.10
2022-12-12T10:16:58.169Z,-2.10
2022-12-12T10:19:28.663Z,-2.00
2022-12-12T10:22:00.724Z,-2.00
2022-12-12T10:24:32.708Z,-2.00
2022-12-12T10:27:01.974Z,-2.10
2022-12-12T10:29:30.272Z,-2.00
2022-12-12T10:32:05.152Z,-2.00
2022-12-12T10:34:45.044Z,-2.00
2022-12-12T10:37:28.550Z,-2.00
2022-12-12T10:40:01.051Z,-2.00
2022-12-12T10:42:33.137Z,-1.90
2022-12-12T10:45:15.122Z,-2.00
2022-12-12T10:47:43.547Z,-1.90
2022-12-12T10:50:25.494Z,-2.00
2022-12-12T10:52:55.532Z,-1.90
2022-12-12T10:55:26.981Z,-1.90
2022-12-12T10:58:01.560Z,-1.90
2022-12-12T11:00:31.742Z,-1.90
2022-12-12T11:03:00.544Z,-1.80
2022-12-12T11:05:30.372Z,-1.80
2022-12-12T11:08:04.766Z,-1.80
2022-12-12T11:10:34.902Z,-1.80
2022-12-12T11:13:04.582Z,-1.80
2022-12-12T11:15:40.609Z,-1.90
2022-12-12T11:18:14.396Z,-1.90
2022-12-12T11:20:45.453Z,-1.90
2022-12-12T11:23:18.419Z,-1.90
2022-12-12T11:25:47.389Z,-1.90
2022-12-12T11:28:18.509Z,-1.90
2022-12-12T11:30:50.876Z,-1.90
2022-12-12T11:33:26.266Z,-1.90
2022-12-12T11:35:56.172Z,-1.90
2022-12-12T11:38:27.593Z,-1.90
2022-12-12T11:40:59.984Z,-1.80
2022-12-12T11:43:29.093Z,-1.80
2022-12-12T11:46:01.603Z,-1.80
2022-12-12T11:48:32.997Z,-1.70
2022-12-12T11:51:01.308Z,-1.70
2022-12-12T11:53:31.065Z,-1.70
2022-12-12T11:56:06.241Z,-1.70
2022-12-12T11:58:38.637Z,-1.70
2022-12-12T12:01:11.004Z,-1.60
2022-12-12T12:03:53.296Z,-1.50
2022-12-12T12:06:26.649Z,-1.60
2022-12-12T12:09:04.879Z,-1.50
2022-12-12T12:11:36.214Z,-1.50
2022-12-12T12:14:16.957Z,-1.60
2022-12-12T12:16:49.904Z,-1.50
2022-12-12T12:19:22.900Z,-1.40
2022-12-12T12:21:56.824Z,-1.50
2022-12-12T12:24:36.482Z,-1.50
2022-12-12T12:27:10.179Z,-1.40
2022-12-12T12:29:54.893Z,-1.40
2022-12-12T12:32:27.663Z,-1.40
2022-12-12T12:35:01.209Z,-1.40
2022-12-12T12:37:36.072Z,-1.40
2022-12-12T12:40:12.056Z,-1.30
2022-12-12T12:42:49.993Z,-1.40
2022-12-12T12:45:20.441Z,-1.40
2022-12-12T12:47:52.533Z,-1.40
2022-12-12T12:50:22.869Z,-1.30
2022-12-12T12:52:55.335Z,-1.30
2022-12-12T12:55:27.104Z,-1.20
2022-12-12T12:57:55.344Z,-1.30
2022-12-12T13:00:24.970Z,-1.30
2022-12-12T13:02:57.353Z,-1.30
2022-12-12T13:05:28.785Z,-1.20
2022-12-12T13:08:02.534Z,-1.30
2022-12-12T13:10:32.684Z,-1.30
2022-12-12T13:13:07.108Z,-1.30
2022-12-12T13:15:36.703Z,-1.30
2022-12-12T13:18:05.697Z,-1.30
2022-12-12T13:20:34.900Z,-1.30
2022-12-12T13:23:14.118Z,-1.40
2022-12-12T13:25:50.024Z,-1.30
2022-12-12T13:28:21.071Z,-1.30
2022-12-12T13:30:57.290Z,-1.40
2022-12-12T13:33:31.731Z,-1.40
2022-12-12T13:36:05.791Z,-1.40
2022-12-12T13:38:34.582Z,-1.30
2022-12-12T13:41:06.526Z,-1.30
2022-12-12T13:43:42.894Z,-1.40
2022-12-12T13:46:29.413Z,-1.40
2022-12-12T13:49:00.065Z,-1.30
2022-12-12T13:51:36.134Z,-1.30
2022-12-12T13:54:22.968Z,-1.30
2022-12-12T13:57:07.227Z,-1.30
2022-12-12T14:00:03.568Z,-1.30
2022-12-12T14:02:32.726Z,-1.20
2022-12-12T14:05:08.909Z,-1.30
2022-12-12T14:07:37.879Z,-1.30
2022-12-12T14:10:21.260Z,-1.30
2022-12-12T14:12:50.934Z,-1.30
2022-12-12T14:15:22.045Z,-1.30
2022-12-12T14:17:54.837Z,-1.20
2022-12-12T14:20:28.093Z,-1.30
2022-12-12T14:23:10.906Z,-1.30
2022-12-12T14:25:39.735Z,-1.20
2022-12-12T14:28:20.332Z,-1.10
2022-12-12T14:31:04.675Z,-1.20
2022-12-12T14:33:47.470Z,-1.10
2022-12-12T14:36:26.776Z,-1.10
2022-12-12T14:39:01.227Z,-1.10
2022-12-12T14:41:35.756Z,-1.20
2022-12-12T14:44:36.282Z,-1.20
2022-12-12T14:46:59.005Z,-1.20
2022-12-12T14:49:27.305Z,-1.20
2022-12-12T14:51:58.084Z,-1.10
2022-12-12T14:54:27.272Z,-1.10
2022-12-12T14:56:56.558Z,-1.10
2022-12-12T14:59:27.595Z,-1.00
2022-12-12T15:01:58.012Z,-1.10
2022-12-12T15:04:27.953Z,-1.10
2022-12-12T15:06:56.411Z,-1.10
2022-12-12T15:09:27.383Z,-1.00
2022-12-12T15:11:56.931Z,-1.10
2022-12-12T15:14:28.057Z,-1.10
2022-12-12T15:16:59.504Z,-1.10
2022-12-12T15:19:29.009Z,-1.10
2022-12-12T15:21:58.278Z,-1.10
2022-12-12T15:24:27.619Z,-1.10
2022-12-12T15:26:57.066Z,-1.10
2022-12-12T15:29:27.851Z,-1.10
2022-12-12T15:31:58.732Z,-1.10
2022-12-12T15:34:34.849Z,-1.20
2022-12-12T15:37:22.769Z,-1.10
2022-12-12T15:40:23.908Z,-1.00
2022-12-12T15:42:53.931Z,-1.00
2022-12-12T15:45:26.049Z,-1.10
2022-12-12T15:47:54.841Z,-1.10
2022-12-12T15:50:24.748Z,-1.00
2022-12-12T15:53:05.563Z,-1.10
2022-12-12T15:55:34.515Z,-1.00
2022-12-12T15:58:02.725Z,-1.10
2022-12-12T16:00:34.373Z,-1.10
2022-12-12T16:03:04.331Z,-0.90
2022-12-12T16:05:33.536Z,-1.00
2022-12-12T16:08:20.371Z,-1.10
2022-12-12T16:10:52.893Z,-1.10
2022-12-12T16:13:25.168Z,-1.00
2022-12-12T16:15:54.903Z,-0.90
2022-12-12T16:18:25.028Z,-1.00
2022-12-12T16:20:54.213Z,-0.90
2022-12-12T16:23:24.246Z,-1.00
2022-12-12T16:25:52.335Z,-1.00
2022-12-12T16:28:25.347Z,-1.00
2022-12-12T16:30:59.542Z,-1.10
2022-12-12T16:33:30.085Z,-1.20
2022-12-12T16:44:14.461Z,-1.10
2022-12-12T16:46:44.008Z,-1.10
2022-12-12T16:49:15.482Z,-1.10
2022-12-12T16:51:43.999Z,-1.20
2022-12-12T16:54:15.010Z,-1.10
2022-12-12T16:56:43.233Z,-1.10
2022-12-12T16:59:11.606Z,-1.10
2022-12-12T17:01:40.405Z,-1.20
2022-12-12T17:04:18.728Z,-1.30
2022-12-12T17:06:46.975Z,-1.20
2022-12-12T17:09:15.196Z,-1.10
2022-12-12T17:11:43.461Z,-1.20
2022-12-12T17:14:15.866Z,-1.20
2022-12-12T17:16:44.182Z,-1.10
2022-12-12T17:19:15.986Z,-1.10
2022-12-12T17:21:44.189Z,-1.20
2022-12-12T17:24:12.524Z,-1.10
2022-12-12T17:26:40.716Z,-1.20
2022-12-12T17:29:09.071Z,-1.20
2022-12-12T17:31:37.344Z,-1.30
2022-12-12T17:34:06.242Z,-1.20
2022-12-12T17:36:35.840Z,-1.20
2022-12-12T17:39:04.295Z,-1.40
2022-12-12T17:41:32.391Z,-1.40
2022-12-12T17:44:00.549Z,-1.40
2022-12-12T17:46:30.072Z,-1.40
2022-12-12T17:48:59.267Z,-1.40
2022-12-12T17:51:30.336Z,-1.50
2022-12-12T18:02:08.358Z,-1.50
2022-12-12T18:04:42.726Z,-1.60
2022-12-12T18:07:11.154Z,-1.70
2022-12-12T18:09:42.028Z,-1.60
2022-12-12T18:12:10.894Z,-1.50
2022-12-12T18:14:39.372Z,-1.70
2022-12-12T18:17:09.072Z,-1.70
2022-12-12T18:19:37.248Z,-1.80
2022-12-12T18:22:05.596Z,-1.70
2022-12-12T18:24:33.779Z,-1.70
2022-12-12T18:27:03.687Z,-1.90
2022-12-12T18:29:32.394Z,-1.90
2022-12-12T18:32:00.914Z,-1.90
2022-12-12T18:34:33.663Z,-1.90
2022-12-12T18:37:01.789Z,-1.90
2022-12-12T18:39:30.076Z,-1.90
2022-12-12T18:41:58.239Z,-2.00
2022-12-12T18:44:28.510Z,-2.00
2022-12-12T18:46:58.466Z,-2.00
2022-12-12T18:49:29.510Z,-2.00
2022-12-12T18:52:00.348Z,-2.10
2022-12-12T18:54:28.457Z,-2.10
2022-12-12T18:56:56.645Z,-2.00
2022-12-12T18:59:25.030Z,-2.10
2022-12-12T19:01:53.235Z,-2.20
2022-12-12T19:04:23.647Z,-2.00
2022-12-12T19:06:52.346Z,-2.10
2022-12-12T19:09:22.197Z,-2.10
2022-12-12T19:11:50.376Z,-2.00
2022-12-12T19:14:18.571Z,-2.10
2022-12-12T19:16:46.880Z,-2.10
2022-12-12T19:19:15.073Z,-2.10
2022-12-12T19:21:43.498Z,-2.00
2022-12-12T19:24:12.620Z,-2.10
2022-12-12T19:26:43.896Z,-2.10
2022-12-12T19:29:15.399Z,-2.20
2022-12-12T19:31:43.524Z,-2.20
2022-12-12T19:34:12.797Z,-2.20
2022-12-12T19:36:41.200Z,-2.30
2022-12-12T19:39:09.578Z,-2.30
2022-12-12T19:41:37.825Z,-2.30
2022-12-12T19:44:12.547Z,-2.30
2022-12-12T19:46:42.448Z,-2.20
2022-12-12T19:49:12.239Z,-2.30
2022-12-12T19:51:45.079Z,-2.30
2022-12-12T19:54:14.712Z,-2.30
2022-12-12T19:56:43.268Z,-2.30
2022-12-12T19:59:14.211Z,-2.30
2022-12-12T20:01:43.192Z,-2.40
2022-12-12T20:04:15.350Z,-2.50
2022-12-12T20:06:46.069Z,-2.60
2022-12-12T20:09:15.300Z,-2.50
2022-12-12T20:11:45.418Z,-2.50
2022-12-12T20:14:15.749Z,-2.40
2022-12-12T20:16:45.126Z,-2.50
2022-12-12T20:19:13.713Z,-2.40
2022-12-12T20:22:00.316Z,-2.50
2022-12-12T20:24:29.428Z,-2.60
2022-12-12T20:26:59.760Z,-2.60
2022-12-12T20:29:29.447Z,-2.60
2022-12-12T20:32:00.100Z,-2.60
2022-12-12T20:34:31.427Z,-2.60
2022-12-12T20:36:59.702Z,-2.60
2022-12-12T20:39:27.869Z,-2.60
2022-12-12T20:41:57.039Z,-2.60
2022-12-12T20:44:25.878Z,-2.60
2022-12-12T20:46:55.548Z,-2.70
2022-12-12T20:49:24.853Z,-2.60
2022-12-12T20:51:56.497Z,-2.60
2022-12-12T20:54:25.703Z,-2.70
2022-12-12T20:56:54.301Z,-2.70
2022-12-12T21:11:14.028Z,-2.70
2022-12-12T21:13:55.877Z,-2.70
2022-12-12T21:16:39.360Z,-2.70
2022-12-12T21:19:17.817Z,-2.70
2022-12-12T21:21:56.646Z,-2.80
2022-12-12T21:24:39.355Z,-2.80
2022-12-12T21:27:19.103Z,-2.70
2022-12-12T21:29:57.825Z,-2.80
2022-12-12T21:32:35.802Z,-2.80
2022-12-12T21:35:17.224Z,-2.80
2022-12-12T21:37:52.329Z,-2.80
2022-12-12T21:40:29.943Z,-2.90
2022-12-12T21:43:05.252Z,-2.90
2022-12-12T21:45:53.814Z,-2.80
2022-12-12T21:48:33.002Z,-2.80
2022-12-12T21:51:13.211Z,-2.90
2022-12-12T21:53:58.442Z,-2.80
2022-12-12T21:56:39.763Z,-2.80
2022-12-12T21:59:47.337Z,-2.80
2022-12-12T22:02:25.680Z,-2.80
2022-12-12T22:05:01.229Z,-2.80
2022-12-12T22:07:42.699Z,-2.80
2022-12-12T22:10:15.799Z,-2.80
2022-12-12T22:12:57.414Z,-2.80
2022-12-12T22:15:32.672Z,-2.70
2022-12-12T22:18:06.596Z,-2.90
